Time;durP1;ratioP1;P1;durP2;ratioP2;P2;SDS_P1;SDS_P2;PMS_P1;PMS_P2;Temp;Humidity;BMP_temperature;BMP_pressure;BME280_temperature;BME280_humidity;BME280_pressure;Samples;Min_cycle;Max_cycle;Signal;HPM_P1;HPM_P2
2022/09/21 00:01:31;;;;;;;12.23;2.45;;;20.10;86.10;;;;;;5070642;28;20125;-54
2022/09/21 00:04:01;;;;;;;10.20;2.08;;;20.10;85.80;;;;;;5052990;28;20028;-54
2022/09/21 00:06:32;;;;;;;9.40;2.42;;;20.10;85.20;;;;;;5050691;28;20056;-55
2022/09/21 00:09:02;;;;;;;11.50;2.03;;;20.10;85.40;;;;;;5049707;28;20043;-54
2022/09/21 00:11:32;;;;;;;14.48;2.15;;;20.10;85.30;;;;;;5049180;28;20029;-54
2022/09/21 00:14:06;;;;;;;12.95;2.20;;;20.10;85.30;;;;;;5081534;28;20121;-54
2022/09/21 00:16:35;;;;;;;8.52;2.00;;;20.20;85.30;;;;;;5050361;28;20036;-53
2022/09/21 00:19:05;;;;;;;12.88;1.85;;;20.20;85.30;;;;;;5050055;28;20017;-54
2022/09/21 00:21:34;;;;;;;11.88;2.30;;;20.20;85.30;;;;;;5050376;28;20357;-54
2022/09/21 00:24:02;;;;;;;8.82;1.98;;;20.20;85.00;;;;;;5031984;28;20077;-54
2022/09/21 00:26:31;;;;;;;9.88;2.05;;;20.20;85.00;;;;;;5050046;28;20043;-54
2022/09/21 00:29:02;;;;;;;8.45;2.20;;;20.20;85.20;;;;;;5047901;28;20435;-54
2022/09/21 00:31:30;;;;;;;9.02;1.98;;;20.20;84.90;;;;;;5050120;28;20039;-53
2022/09/21 00:33:59;;;;;;;9.27;2.40;;;20.20;84.60;;;;;;5048969;28;20456;-54
2022/09/21 00:36:28;;;;;;;11.82;1.98;;;20.20;84.20;;;;;;5048421;28;20147;-54
2022/09/21 00:39:00;;;;;;;11.27;1.92;;;20.20;84.40;;;;;;5049641;28;20091;-54
2022/09/21 00:41:31;;;;;;;11.43;2.70;;;20.20;84.50;;;;;;5049832;28;20100;-54
2022/09/21 00:44:18;;;;;;;12.98;2.42;;;20.20;84.50;;;;;;5048745;28;20021;-54
2022/09/21 00:46:48;;;;;;;10.80;2.08;;;20.20;84.40;;;;;;5053115;28;20127;-54
2022/09/21 00:49:18;;;;;;;13.35;2.33;;;20.20;84.60;;;;;;5070005;28;20548;-53
2022/09/21 00:51:46;;;;;;;14.82;2.53;;;20.20;84.90;;;;;;5068759;28;20028;-54
2022/09/21 00:54:26;;;;;;;14.23;2.17;;;20.20;85.00;;;;;;5069906;28;20424;-54
2022/09/21 00:57:00;;;;;;;12.70;2.20;;;20.20;84.90;;;;;;5069605;28;20462;-54
2022/09/21 00:59:31;;;;;;;8.32;1.65;;;20.20;84.60;;;;;;5068287;28;20025;-54
2022/09/21 01:02:00;;;;;;;10.47;2.20;;;20.20;84.50;;;;;;5060632;28;20032;-54
2022/09/21 01:04:28;;;;;;;12.57;2.30;;;20.20;84.70;;;;;;5049578;28;20083;-54
2022/09/21 01:06:59;;;;;;;13.13;2.28;;;20.30;84.90;;;;;;5048159;28;20045;-54
2022/09/21 01:09:28;;;;;;;12.93;2.92;;;20.30;84.90;;;;;;5048158;28;20021;-54
2022/09/21 01:11:59;;;;;;;13.10;2.40;;;20.30;84.90;;;;;;5047983;28;20052;-54
2022/09/21 01:14:45;;;;;;;9.13;2.10;;;20.30;84.90;;;;;;5049247;28;20029;-54
2022/09/21 01:17:22;;;;;;;8.35;2.03;;;20.30;84.80;;;;;;5049588;28;20025;-54
2022/09/21 01:20:19;;;;;;;9.70;2.28;;;20.30;84.80;;;;;;5049310;28;20028;-53
2022/09/21 01:23:17;;;;;;;10.27;2.33;;;20.30;84.80;;;;;;5049637;28;20033;-53
2022/09/21 01:26:12;;;;;;;8.05;1.85;;;20.30;84.70;;;;;;5049894;28;20029;-53
2022/09/21 01:29:12;;;;;;;11.23;1.88;;;20.40;84.80;;;;;;5048568;28;20116;-54
2022/09/21 01:32:06;;;;;;;12.90;2.50;;;20.40;84.60;;;;;;5049216;28;20024;-54
2022/09/21 01:34:53;;;;;;;9.90;2.55;;;20.40;84.40;;;;;;5041859;28;20063;-54
2022/09/21 01:37:47;;;;;;;9.15;2.03;;;20.40;84.40;;;;;;5047683;28;20396;-54
2022/09/21 01:40:49;;;;;;;12.80;2.20;;;20.40;84.40;;;;;;5049256;28;20558;-54
2022/09/21 01:43:26;;;;;;;13.07;2.60;;;20.30;84.60;;;;;;5048717;28;20115;-53
2022/09/21 01:46:00;;;;;;;10.85;2.03;;;20.40;84.70;;;;;;5050840;28;20514;-54
2022/09/21 01:48:37;;;;;;;16.33;2.63;;;20.40;84.80;;;;;;5052647;28;20033;-53
2022/09/21 01:51:10;;;;;;;9.70;2.25;;;20.40;84.90;;;;;;5052927;28;20455;-53
2022/09/21 01:53:47;;;;;;;13.00;2.22;;;20.40;85.00;;;;;;5056392;28;20024;-53
2022/09/21 01:56:26;;;;;;;9.93;2.17;;;20.30;85.00;;;;;;5071612;28;20095;-53
2022/09/21 01:59:10;;;;;;;13.32;2.40;;;20.40;85.00;;;;;;5053989;28;20427;-54
2022/09/21 02:01:59;;;;;;;10.43;1.77;;;20.40;84.90;;;;;;5072625;28;20100;-53
2022/09/21 02:04:27;;;;;;;11.07;2.22;;;20.40;84.90;;;;;;5071588;28;20028;-53
2022/09/21 02:06:56;;;;;;;8.10;1.80;;;20.30;84.80;;;;;;5054562;28;20174;-53
2022/09/21 02:09:24;;;;;;;13.00;2.35;;;20.40;84.80;;;;;;5072609;28;20081;-53
2022/09/21 02:11:52;;;;;;;10.95;2.25;;;20.30;84.70;;;;;;5072341;28;20043;-54
2022/09/21 02:14:23;;;;;;;9.80;2.42;;;20.30;84.90;;;;;;5053748;28;20025;-54
2022/09/21 02:17:14;;;;;;;10.90;2.50;;;20.30;84.90;;;;;;5051249;28;20044;-54
2022/09/21 02:19:56;;;;;;;9.30;2.10;;;20.30;84.90;;;;;;5051112;28;20395;-53
2022/09/21 02:22:40;;;;;;;15.15;2.65;;;20.40;85.00;;;;;;5051073;28;20086;-54
2022/09/21 02:25:24;;;;;;;11.02;2.00;;;20.40;85.00;;;;;;5052544;28;20035;-53
2022/09/21 02:28:00;;;;;;;13.77;2.17;;;20.40;85.00;;;;;;5079597;28;20029;-54
2022/09/21 02:30:32;;;;;;;11.43;2.05;;;20.40;84.90;;;;;;5052717;28;20433;-53
2022/09/21 02:33:22;;;;;;;11.40;2.00;;;20.40;84.80;;;;;;5052244;28;20391;-53
2022/09/21 02:36:09;;;;;;;14.23;2.92;;;20.40;84.80;;;;;;5051259;28;20495;-55
2022/09/21 02:38:48;;;;;;;11.23;2.00;;;20.40;84.70;;;;;;5051867;28;20060;-53
2022/09/21 02:41:39;;;;;;;10.45;2.20;;;20.40;84.80;;;;;;5051186;28;20373;-53
2022/09/21 02:44:18;;;;;;;10.48;2.42;;;20.40;84.80;;;;;;5069610;28;20061;-54
2022/09/21 02:46:58;;;;;;;16.02;2.45;;;20.50;84.80;;;;;;5070779;28;20041;-53
2022/09/21 02:49:33;;;;;;;10.80;2.08;;;20.50;84.60;;;;;;5070824;28;20020;-53
2022/09/21 02:52:08;;;;;;;11.88;2.08;;;20.40;84.40;;;;;;5070329;28;20078;-53
2022/09/21 02:54:39;;;;;;;8.95;1.98;;;20.50;84.40;;;;;;5071992;28;20035;-54
2022/09/21 02:57:08;;;;;;;10.10;2.40;;;20.50;84.50;;;;;;5064230;28;20025;-53
2022/09/21 02:59:36;;;;;;;8.57;2.55;;;20.50;84.50;;;;;;5051653;28;20025;-53
2022/09/21 03:02:05;;;;;;;15.68;2.22;;;20.40;84.50;;;;;;5050109;28;20072;-53
2022/09/21 03:04:33;;;;;;;16.55;2.22;;;20.50;84.60;;;;;;5050268;28;20055;-53
2022/09/21 03:07:02;;;;;;;10.25;2.55;;;20.50;84.60;;;;;;5051236;28;20033;-53
2022/09/21 03:09:30;;;;;;;11.43;2.72;;;20.50;84.60;;;;;;5051502;28;20017;-53
2022/09/21 03:11:58;;;;;;;11.38;2.50;;;20.50;84.50;;;;;;5055448;28;20471;-53
2022/09/21 03:14:26;;;;;;;12.88;2.30;;;20.50;84.50;;;;;;5065898;28;20025;-53
2022/09/21 03:16:54;;;;;;;12.93;2.50;;;20.50;84.50;;;;;;5051288;28;20079;-53
2022/09/21 03:19:22;;;;;;;11.80;2.35;;;20.50;84.60;;;;;;5049633;28;20017;-53
2022/09/21 03:21:53;;;;;;;7.90;2.17;;;20.50;84.70;;;;;;5049828;28;20025;-53
2022/09/21 03:27:08;;;;;;;9.63;2.85;;;20.50;84.70;;;;;;5048704;28;20036;-53
2022/09/21 03:29:36;;;;;;;11.63;3.00;;;20.50;84.80;;;;;;5051051;28;20028;-52
2022/09/21 03:32:04;;;;;;;10.77;2.60;;;20.50;85.10;;;;;;5049406;28;20029;-52
2022/09/21 03:34:33;;;;;;;11.95;2.45;;;20.50;85.20;;;;;;5066096;28;20028;-53
2022/09/21 03:37:03;;;;;;;11.95;2.35;;;20.50;85.20;;;;;;5065987;28;20115;-53
2022/09/21 03:39:32;;;;;;;11.15;2.40;;;20.50;85.30;;;;;;5060463;28;20142;-52
2022/09/21 03:42:01;;;;;;;15.07;2.85;;;20.50;85.50;;;;;;5069921;28;20074;-52
2022/09/21 03:44:30;;;;;;;9.93;2.28;;;20.50;85.50;;;;;;5069378;28;20036;-54
2022/09/21 03:46:57;;;;;;;11.57;2.20;;;20.50;85.60;;;;;;5070547;28;20036;-51
2022/09/21 03:49:26;;;;;;;13.05;2.70;;;20.50;85.50;;;;;;5070731;28;20020;-52
2022/09/21 03:51:54;;;;;;;13.38;2.65;;;20.50;85.60;;;;;;5070381;28;20052;-51
2022/09/21 03:54:23;;;;;;;14.30;3.05;;;20.50;85.80;;;;;;5066884;28;20458;-52
2022/09/21 03:56:51;;;;;;;14.07;2.90;;;20.50;85.80;;;;;;5055370;28;20042;-58
2022/09/21 03:59:20;;;;;;;17.23;2.33;;;20.40;85.80;;;;;;5069982;28;20372;-52
2022/09/21 04:01:47;;;;;;;13.48;2.58;;;20.50;86.10;;;;;;5069366;28;20558;-52
2022/09/21 04:04:16;;;;;;;15.98;3.38;;;20.50;86.10;;;;;;5061702;28;20050;-52
2022/09/21 04:06:45;;;;;;;11.63;2.88;;;20.50;86.10;;;;;;5050209;28;20029;-52
2022/09/21 04:09:13;;;;;;;15.77;2.78;;;20.50;86.20;;;;;;5050072;28;20084;-52
2022/09/21 04:11:41;;;;;;;15.90;3.08;;;20.40;86.30;;;;;;5054965;28;20131;-52
2022/09/21 04:14:11;;;;;;;13.20;3.05;;;20.50;86.30;;;;;;5067972;28;20104;-53
2022/09/21 04:16:39;;;;;;;12.90;3.13;;;20.40;86.20;;;;;;5069375;28;20042;-53
2022/09/21 04:19:07;;;;;;;15.40;3.20;;;20.40;86.30;;;;;;5070047;28;20060;-52
2022/09/21 04:21:35;;;;;;;12.93;3.20;;;20.40;86.50;;;;;;5070000;28;20017;-51
2022/09/21 04:24:04;;;;;;;17.00;2.92;;;20.40;86.50;;;;;;5069782;28;20062;-52
2022/09/21 04:26:33;;;;;;;20.83;3.90;;;20.40;86.50;;;;;;5062280;28;20025;-53
2022/09/21 04:29:03;;;;;;;14.93;2.80;;;20.40;86.60;;;;;;5047948;28;20036;-53
2022/09/21 04:31:32;;;;;;;16.40;4.15;;;20.40;86.60;;;;;;5049829;28;20108;-52
2022/09/21 04:34:01;;;;;;;13.80;3.63;;;20.40;86.80;;;;;;5049848;28;20033;-52
2022/09/21 04:36:31;;;;;;;16.33;2.67;;;20.40;86.90;;;;;;5049865;28;20028;-53
2022/09/21 04:39:02;;;;;;;14.95;2.88;;;20.40;87.00;;;;;;5049420;28;20044;-52
2022/09/21 04:41:31;;;;;;;17.40;2.40;;;20.40;87.10;;;;;;5058708;28;20075;-53
2022/09/21 04:43:59;;;;;;;13.75;2.60;;;20.40;87.10;;;;;;5067455;28;20360;-52
2022/09/21 04:46:28;;;;;;;16.30;2.67;;;20.40;87.10;;;;;;5068660;28;20089;-52
2022/09/21 04:48:56;;;;;;;15.98;2.80;;;20.40;87.10;;;;;;5069890;28;20013;-53
2022/09/21 04:51:24;;;;;;;14.45;2.92;;;20.40;87.30;;;;;;5070041;28;20024;-53
2022/09/21 04:53:52;;;;;;;14.10;3.15;;;20.40;87.50;;;;;;5067960;28;20035;-53
2022/09/21 04:56:20;;;;;;;15.55;3.15;;;20.40;87.40;;;;;;5059723;28;20043;-53
2022/09/21 04:58:48;;;;;;;14.43;3.05;;;20.40;87.60;;;;;;5047887;28;20017;-53
2022/09/21 05:01:16;;;;;;;13.18;3.40;;;20.40;87.70;;;;;;5050037;28;20107;-53
2022/09/21 05:03:44;;;;;;;18.88;3.20;;;20.40;87.70;;;;;;5049312;28;20056;-53
2022/09/21 05:06:13;;;;;;;18.70;3.28;;;20.40;87.60;;;;;;5049313;28;20439;-53
2022/09/21 05:11:28;;;;;;;14.88;3.38;;;20.40;87.70;;;;;;5061947;28;20028;-52
2022/09/21 05:13:56;;;;;;;14.32;3.53;;;20.40;88.00;;;;;;5067436;28;20378;-52
2022/09/21 05:16:24;;;;;;;16.63;2.95;;;20.40;88.20;;;;;;5049415;28;20036;-51
2022/09/21 05:18:56;;;;;;;17.50;3.72;;;20.40;88.40;;;;;;5049027;28;20052;-53
2022/09/21 05:21:24;;;;;;;13.80;3.10;;;20.40;88.40;;;;;;5051607;28;20100;-52
2022/09/21 05:23:52;;;;;;;13.75;2.83;;;20.40;88.50;;;;;;5051794;28;20124;-55
2022/09/21 05:26:21;;;;;;;18.35;3.53;;;20.30;88.50;;;;;;5053818;28;20049;-52
2022/09/21 05:28:49;;;;;;;14.75;3.10;;;20.40;88.70;;;;;;5052732;28;20021;-52
2022/09/21 05:31:18;;;;;;;11.18;2.80;;;20.40;88.80;;;;;;5053602;28;20064;-52
2022/09/21 05:34:35;;;;;;;19.50;3.53;;;20.30;88.80;;;;;;5052757;28;20013;-53
2022/09/21 05:37:30;;;;;;;17.05;3.30;;;20.30;88.80;;;;;;5051405;28;20107;-53
2022/09/21 05:39:58;;;;;;;15.35;3.28;;;20.30;88.90;;;;;;5030082;28;20119;-53
2022/09/21 05:42:26;;;;;;;20.10;3.05;;;20.30;89.10;;;;;;5052058;28;20091;-53
2022/09/21 05:44:55;;;;;;;17.02;2.60;;;20.30;89.20;;;;;;5053043;28;20021;-53
2022/09/21 05:47:37;;;;;;;17.30;3.33;;;20.30;89.20;;;;;;5051251;28;20124;-53
2022/09/21 05:50:15;;;;;;;14.52;3.50;;;20.30;89.20;;;;;;5052792;28;20475;-53
2022/09/21 05:53:05;;;;;;;18.33;3.28;;;20.30;89.20;;;;;;5051215;28;20025;-54
2022/09/21 05:55:44;;;;;;;14.60;3.03;;;20.30;89.20;;;;;;5052882;28;20142;-53
2022/09/21 05:58:24;;;;;;;17.25;3.83;;;20.30;89.30;;;;;;5051597;28;20025;-53
2022/09/21 06:00:53;;;;;;;19.33;4.13;;;20.30;89.30;;;;;;5051452;28;20033;-53
2022/09/21 06:03:24;;;;;;;13.10;2.78;;;20.30;89.40;;;;;;5052573;28;20415;-58
2022/09/21 06:05:52;;;;;;;14.60;3.25;;;20.30;89.40;;;;;;5052711;28;20047;-52
2022/09/21 06:08:20;;;;;;;14.85;3.33;;;20.30;89.40;;;;;;5052684;28;20056;-54
2022/09/21 06:10:49;;;;;;;17.67;3.42;;;20.30;89.20;;;;;;5051451;28;20029;-53
2022/09/21 06:13:17;;;;;;;16.88;3.38;;;20.40;89.20;;;;;;5051886;28;20089;-53
2022/09/21 06:15:46;;;;;;;17.25;3.50;;;20.30;89.10;;;;;;5052363;28;20025;-53
2022/09/21 06:18:14;;;;;;;16.67;3.03;;;20.40;89.00;;;;;;5051856;28;20109;-53
2022/09/21 06:20:42;;;;;;;16.50;3.53;;;20.40;88.90;;;;;;5052187;28;20029;-53
2022/09/21 06:23:12;;;;;;;17.15;3.17;;;20.30;88.90;;;;;;5051981;28;20025;-53
2022/09/21 06:25:41;;;;;;;14.40;2.72;;;20.30;89.00;;;;;;5052091;28;20124;-54
2022/09/21 06:28:13;;;;;;;14.48;2.90;;;20.30;88.90;;;;;;5049868;28;20032;-52
2022/09/21 06:30:43;;;;;;;16.52;3.92;;;20.30;89.40;;;;;;5050686;28;20097;-52
2022/09/21 06:33:11;;;;;;;17.13;3.20;;;20.30;88.70;;;;;;5050501;28;20043;-52
2022/09/21 06:35:40;;;;;;;16.83;3.03;;;20.30;88.70;;;;;;5051964;28;20375;-52
2022/09/21 06:38:08;;;;;;;13.13;2.95;;;20.30;88.70;;;;;;5051531;28;20480;-52
2022/09/21 06:40:36;;;;;;;17.10;2.85;;;20.30;88.60;;;;;;5070046;28;20135;-52
2022/09/21 06:43:05;;;;;;;19.67;3.75;;;20.30;88.60;;;;;;5070783;28;20053;-52
2022/09/21 06:45:33;;;;;;;18.33;3.85;;;20.30;88.80;;;;;;5071906;28;20036;-53
2022/09/21 06:48:01;;;;;;;15.75;3.33;;;20.30;88.70;;;;;;5071565;28;20029;-52
2022/09/21 06:50:30;;;;;;;14.00;3.28;;;20.30;88.70;;;;;;5071913;28;20032;-52
2022/09/21 06:53:00;;;;;;;14.32;3.00;;;20.30;88.60;;;;;;5071464;28;20021;-52
2022/09/21 06:55:30;;;;;;;16.08;2.78;;;20.30;88.60;;;;;;5052030;28;20382;-51
2022/09/21 06:58:02;;;;;;;18.00;3.50;;;20.30;88.70;;;;;;5050896;28;20025;-53
2022/09/21 07:00:31;;;;;;;16.05;3.08;;;20.30;88.60;;;;;;5051671;28;20025;-53
2022/09/21 07:03:00;;;;;;;16.67;3.25;;;20.30;88.60;;;;;;5051521;28;20096;-53
2022/09/21 07:05:28;;;;;;;15.15;3.10;;;20.30;88.50;;;;;;5051955;28;20448;-53
2022/09/21 07:08:00;;;;;;;18.48;3.38;;;20.20;88.40;;;;;;5051844;28;20074;-53
2022/09/21 07:10:28;;;;;;;17.45;3.00;;;20.30;88.40;;;;;;5051480;28;20418;-51
2022/09/21 07:13:02;;;;;;;15.93;3.20;;;20.30;88.40;;;;;;5050480;28;20074;-52
2022/09/21 07:15:31;;;;;;;17.77;3.05;;;20.30;88.50;;;;;;5051437;28;20025;-52
2022/09/21 07:17:59;;;;;;;18.02;3.25;;;20.30;88.40;;;;;;5051064;28;20371;-52
2022/09/21 07:20:27;;;;;;;17.40;3.05;;;20.30;88.50;;;;;;5051372;28;20025;-52
2022/09/21 07:22:56;;;;;;;17.70;3.38;;;20.30;88.40;;;;;;5049688;28;20379;-52
2022/09/21 07:25:24;;;;;;;17.60;3.17;;;20.30;88.20;;;;;;5051185;28;20368;-51
2022/09/21 07:27:52;;;;;;;19.00;3.13;;;20.30;88.20;;;;;;5050229;28;20047;-51
2022/09/21 07:30:20;;;;;;;20.70;3.67;;;20.30;88.10;;;;;;5051724;28;20106;-52
2022/09/21 07:32:48;;;;;;;15.70;3.00;;;20.30;88.10;;;;;;5051496;28;20049;-52
2022/09/21 07:35:18;;;;;;;18.23;3.85;;;20.30;88.10;;;;;;5051507;28;20033;-52
2022/09/21 07:37:45;;;;;;;16.20;3.28;;;20.30;88.10;;;;;;5054278;28;20017;-52
2022/09/21 07:40:14;;;;;;;23.15;4.03;;;20.30;88.10;;;;;;5070221;28;20117;-53
2022/09/21 07:42:43;;;;;;;19.30;4.43;;;20.30;88.20;;;;;;5069878;28;20047;-53
2022/09/21 07:45:12;;;;;;;22.17;4.25;;;20.30;88.40;;;;;;5070645;28;20130;-53
2022/09/21 07:47:39;;;;;;;16.95;3.92;;;20.30;88.40;;;;;;5070419;28;20040;-52
2022/09/21 07:50:11;;;;;;;21.55;4.05;;;20.30;88.40;;;;;;5070657;28;20462;-52
2022/09/21 07:52:39;;;;;;;9.88;2.95;;;20.30;88.30;;;;;;5070392;28;20033;-52
2022/09/21 07:55:07;;;;;;;22.42;4.00;;;20.30;88.40;;;;;;5067261;28;20016;-52
2022/09/21 08:00:22;;;;;;;16.25;3.65;;;20.30;88.70;;;;;;5069915;28;20490;-53
2022/09/21 08:02:50;;;;;;;11.43;3.00;;;20.20;88.50;;;;;;5070644;28;20024;-51
2022/09/21 08:05:19;;;;;;;15.07;3.63;;;20.20;88.50;;;;;;5052125;28;20086;-52
2022/09/21 08:07:47;;;;;;;17.20;3.45;;;20.30;88.50;;;;;;5050364;28;20502;-52
2022/09/21 08:10:15;;;;;;;16.27;3.85;;;20.30;88.60;;;;;;5050308;28;20037;-52
2022/09/21 08:12:43;;;;;;;16.75;3.20;;;20.30;88.80;;;;;;5049331;28;20123;-52
2022/09/21 08:15:13;;;;;;;17.55;3.13;;;20.30;88.70;;;;;;5050426;28;20033;-53
2022/09/21 08:17:41;;;;;;;22.65;3.90;;;20.20;88.50;;;;;;5049724;28;20525;-52
2022/09/21 08:20:10;;;;;;;21.42;3.92;;;20.30;88.70;;;;;;5048457;28;20114;-54
2022/09/21 08:22:37;;;;;;;14.43;3.20;;;20.30;88.80;;;;;;5049499;28;20021;-52
2022/09/21 08:25:06;;;;;;;14.93;4.07;;;20.30;88.80;;;;;;5049713;28;20379;-53
2022/09/21 08:27:34;;;;;;;19.40;3.40;;;20.30;88.70;;;;;;5049106;28;20487;-53
2022/09/21 08:30:03;;;;;;;14.55;4.05;;;20.30;88.80;;;;;;5065146;28;20057;-54
2022/09/21 08:32:31;;;;;;;20.50;4.40;;;20.30;88.90;;;;;;5064421;28;20033;-52
2022/09/21 08:34:59;;;;;;;23.13;3.97;;;20.30;88.60;;;;;;5049665;28;20380;-53
2022/09/21 08:37:28;;;;;;;14.45;3.35;;;20.30;88.60;;;;;;5049522;28;20025;-52
2022/09/21 08:39:56;;;;;;;12.77;3.38;;;20.30;88.70;;;;;;5049580;28;20040;-54
2022/09/21 08:42:27;;;;;;;23.02;3.67;;;20.40;88.50;;;;;;5064279;28;20040;-51
2022/09/21 08:45:00;;;;;;;21.05;3.22;;;20.30;88.70;;;;;;5054914;28;20403;-55
2022/09/21 08:47:49;;;;;;;16.17;3.83;;;20.30;88.80;;;;;;5069424;28;20028;-52
2022/09/21 08:50:26;;;;;;;13.50;3.13;;;20.40;89.10;;;;;;5070213;28;20028;-52
2022/09/21 08:53:21;;;;;;;19.70;3.83;;;20.30;88.70;;;;;;5064571;28;20029;-52
2022/09/21 08:55:50;;;;;;;19.30;4.30;;;20.30;88.70;;;;;;5041796;28;20155;-52
2022/09/21 08:58:22;;;;;;;20.40;4.30;;;20.30;88.40;;;;;;5050069;28;20475;-53
2022/09/21 09:01:35;;;;;;;22.15;4.03;;;20.30;88.50;;;;;;5049203;28;20063;-53
2022/09/21 09:04:14;;;;;;;17.98;3.65;;;20.40;88.50;;;;;;5002118;28;20049;-53
2022/09/21 09:06:42;;;;;;;21.23;3.85;;;20.30;88.60;;;;;;5008455;28;20148;-54
2022/09/21 09:09:34;;;;;;;20.30;5.15;;;20.30;88.40;;;;;;5029245;28;20120;-53
2022/09/21 09:12:35;;;;;;;16.65;3.55;;;20.30;88.60;;;;;;5047257;28;20117;-53
2022/09/21 09:15:33;;;;;;;16.10;3.90;;;20.30;88.60;;;;;;5047881;28;20048;-53
2022/09/21 09:18:21;;;;;;;24.58;4.90;;;20.30;88.60;;;;;;5045182;28;20436;-53
2022/09/21 09:21:04;;;;;;;22.17;4.00;;;20.30;88.50;;;;;;5039534;28;20041;-53
2022/09/21 09:23:46;;;;;;;21.20;4.55;;;20.30;88.80;;;;;;5049773;28;20071;-54
2022/09/21 09:26:50;;;;;;;20.00;3.35;;;20.30;88.80;;;;;;5049647;28;20051;-53
2022/09/21 09:29:58;;;;;;;18.65;3.70;;;20.30;88.90;;;;;;5046095;28;20044;-53
2022/09/21 09:32:54;;;;;;;20.08;3.60;;;20.30;88.80;;;;;;5047549;28;20045;-53
2022/09/21 09:35:47;;;;;;;16.75;3.42;;;20.20;88.90;;;;;;5048082;28;20618;-53
2022/09/21 09:38:39;;;;;;;15.65;3.40;;;20.30;88.90;;;;;;5063184;28;20036;-53
2022/09/21 09:41:46;;;;;;;22.10;3.75;;;20.30;88.70;;;;;;5049474;28;20496;-53
2022/09/21 09:44:41;;;;;;;20.83;4.55;;;20.30;88.80;;;;;;5008595;28;20041;-53
2022/09/21 09:47:46;;;;;;;18.85;4.30;;;20.30;88.80;;;;;;5048970;28;20033;-53
2022/09/21 09:50:29;;;;;;;15.15;3.92;;;20.30;88.70;;;;;;5048076;28;20479;-53
2022/09/21 09:53:18;;;;;;;15.63;3.50;;;20.30;88.80;;;;;;5051922;28;20031;-53
2022/09/21 09:55:53;;;;;;;18.33;3.58;;;20.30;88.80;;;;;;5069543;28;20024;-53
2022/09/21 09:58:29;;;;;;;19.92;3.90;;;20.30;89.10;;;;;;5067337;28;20115;-54
2022/09/21 10:00:57;;;;;;;18.75;3.22;;;20.30;89.10;;;;;;5067840;28;20103;-54
2022/09/21 10:03:27;;;;;;;21.33;3.85;;;20.30;89.10;;;;;;5065372;28;20028;-54
2022/09/21 10:05:55;;;;;;;18.60;3.72;;;20.30;89.20;;;;;;5048956;28;20028;-53
2022/09/21 10:08:47;;;;;;;22.38;3.72;;;20.30;89.20;;;;;;5050834;28;20069;-53
2022/09/21 10:11:16;;;;;;;14.27;3.45;;;20.30;89.10;;;;;;5052662;28;20025;-53
2022/09/21 10:13:47;;;;;;;20.88;4.05;;;20.20;89.10;;;;;;5068357;28;20475;-53
2022/09/21 10:16:20;;;;;;;21.80;3.38;;;20.20;89.10;;;;;;5072517;28;20068;-53
2022/09/21 10:19:00;;;;;;;21.02;3.83;;;20.20;89.10;;;;;;5072546;28;20043;-53
2022/09/21 10:21:36;;;;;;;20.08;3.97;;;20.20;89.20;;;;;;5072510;28;20035;-53
2022/09/21 10:24:18;;;;;;;17.17;3.42;;;20.20;89.20;;;;;;5072197;28;20033;-53
2022/09/21 10:26:53;;;;;;;16.85;3.92;;;20.20;89.20;;;;;;5069399;28;20055;-53
2022/09/21 10:29:25;;;;;;;13.73;4.03;;;20.20;89.20;;;;;;5050099;28;20036;-54
2022/09/21 10:32:28;;;;;;;14.48;3.63;;;20.20;89.20;;;;;;5052248;28;20101;-53
2022/09/21 10:35:15;;;;;;;16.73;3.55;;;20.20;89.10;;;;;;5045096;28;20048;-53
2022/09/21 10:37:47;;;;;;;19.55;4.20;;;20.20;89.10;;;;;;5051645;28;20021;-53
2022/09/21 10:40:18;;;;;;;;;;;20.20;89.00;;;;;;5051292;28;20052;-53
2022/09/21 10:42:49;;;;;;;20.17;3.78;;;20.20;89.00;;;;;;5051678;28;19909;-52
2022/09/21 10:45:26;;;;;;;17.27;3.63;;;20.20;88.90;;;;;;5051242;28;20045;-54
2022/09/21 10:48:15;;;;;;;18.48;3.55;;;20.20;89.00;;;;;;5050344;28;20438;-53
2022/09/21 10:50:49;;;;;;;17.92;3.70;;;20.20;88.80;;;;;;5050645;28;20039;-53
2022/09/21 10:53:34;;;;;;;16.75;3.50;;;20.20;88.80;;;;;;5052074;28;20121;-53
2022/09/21 10:56:07;;;;;;;17.25;3.95;;;20.20;88.70;;;;;;5050570;28;20025;-52
2022/09/21 10:58:36;;;;;;;15.82;3.45;;;20.20;88.60;;;;;;5050909;28;20096;-53
2022/09/21 11:01:11;;;;;;;15.32;3.28;;;20.30;88.60;;;;;;5051702;28;20013;-53
2022/09/21 11:04:04;;;;;;;20.08;3.53;;;20.30;88.70;;;;;;5051552;28;20029;-53
2022/09/21 11:06:45;;;;;;;18.27;3.65;;;20.20;88.70;;;;;;5050222;28;20124;-53
2022/09/21 11:09:32;;;;;;;16.95;3.08;;;20.20;88.70;;;;;;5051452;28;20174;-53
2022/09/21 11:12:26;;;;;;;16.13;4.22;;;20.20;88.80;;;;;;5062430;28;20112;-53
2022/09/21 11:15:32;;;;;;;16.15;3.42;;;20.20;89.00;;;;;;5071613;28;20475;-54
2022/09/21 11:18:13;;;;;;;17.48;3.65;;;20.30;89.60;;;;;;5070556;28;20029;-53
2022/09/21 11:20:47;;;;;;;15.70;3.42;;;20.20;89.30;;;;;;5070268;28;20044;-53
2022/09/21 11:23:33;;;;;;;16.88;3.75;;;20.20;89.60;;;;;;5071106;28;20048;-54
2022/09/21 11:26:17;;;;;;;15.50;3.17;;;20.20;89.40;;;;;;5061545;28;20028;-53
2022/09/21 11:29:23;;;;;;;19.67;3.58;;;20.20;89.60;;;;;;5070509;28;20044;-53
2022/09/21 11:32:22;;;;;;;16.17;3.13;;;20.20;89.80;;;;;;5069638;28;20066;-53
2022/09/21 11:35:26;;;;;;;12.25;3.13;;;20.20;89.90;;;;;;5071780;28;20031;-53
2022/09/21 11:38:12;;;;;;;17.65;3.17;;;20.20;89.90;;;;;;5061127;28;20031;-55
2022/09/21 11:40:47;;;;;;;16.40;3.80;;;20.20;89.90;;;;;;5051034;28;20041;-55
2022/09/21 11:43:44;;;;;;;15.93;4.60;;;20.20;89.90;;;;;;5062229;28;20472;-54
2022/09/21 11:46:25;;;;;;;14.80;3.42;;;20.20;90.00;;;;;;5043369;28;20057;-55
2022/09/21 11:49:14;;;;;;;16.40;4.05;;;20.30;90.10;;;;;;5057136;28;20017;-55
2022/09/21 11:52:08;;;;;;;15.00;4.40;;;20.30;90.20;;;;;;5056177;28;20032;-55
2022/09/21 11:54:48;;;;;;;24.85;6.93;;;20.30;90.30;;;;;;5055234;28;20067;-55
2022/09/21 11:57:34;;;;;;;27.65;5.65;;;20.40;90.50;;;;;;5049872;28;20024;-54
2022/09/21 12:00:20;;;;;;;21.40;5.97;;;20.40;90.50;;;;;;5066420;28;20476;-56
2022/09/21 12:02:58;;;;;;;19.17;5.22;;;20.40;90.60;;;;;;5054891;28;20111;-54
2022/09/21 12:06:04;;;;;;;20.45;4.85;;;20.50;90.70;;;;;;5070604;28;20116;-55
2022/09/21 12:08:58;;;;;;;17.98;4.07;;;20.40;90.70;;;;;;5054762;28;20111;-60
2022/09/21 12:11:32;;;;;;;16.17;4.18;;;20.50;91.10;;;;;;5053041;28;20039;-56
2022/09/21 12:14:10;;;;;;;18.17;4.40;;;20.50;91.10;;;;;;5060801;28;20020;-56
2022/09/21 12:16:54;;;;;;;17.70;4.40;;;20.50;91.00;;;;;;5065816;28;20347;-57
2022/09/21 12:19:47;;;;;;;17.83;3.63;;;20.50;90.90;;;;;;5053414;28;20444;-56
2022/09/21 12:22:21;;;;;;;13.98;3.55;;;20.50;90.70;;;;;;5068198;28;20033;-54
2022/09/21 12:24:57;;;;;;;12.38;3.28;;;20.50;90.60;;;;;;5063915;28;20387;-56
2022/09/21 12:27:58;;;;;;;13.63;3.50;;;20.50;90.50;;;;;;5060292;28;20036;-57
2022/09/21 12:30:30;;;;;;;15.93;3.53;;;20.50;90.00;;;;;;5059491;28;20021;-57
2022/09/21 12:33:26;;;;;;;13.48;3.60;;;20.50;90.00;;;;;;5057773;28;20099;-55
2022/09/21 12:36:09;;;;;;;17.30;3.60;;;20.50;89.70;;;;;;5060585;28;20387;-54
2022/09/21 12:38:45;;;;;;;12.35;3.60;;;20.50;89.80;;;;;;5054392;28;20110;-54
2022/09/21 12:41:29;;;;;;;12.20;3.38;;;20.50;90.00;;;;;;5050615;28;20052;-54
2022/09/21 12:44:26;;;;;;;15.90;3.10;;;20.50;89.70;;;;;;5049035;28;20025;-54
2022/09/21 12:47:09;;;;;;;15.77;3.53;;;20.60;89.20;;;;;;5049316;28;20673;-54
2022/09/21 12:49:46;;;;;;;13.30;3.42;;;20.60;89.40;;;;;;5056643;28;20113;-56
2022/09/21 12:52:24;;;;;;;13.00;3.13;;;20.60;89.30;;;;;;5051703;28;20393;-56
2022/09/21 12:55:18;;;;;;;20.08;3.97;;;20.60;89.50;;;;;;5051393;28;20089;-57
2022/09/21 12:58:14;;;;;;;16.38;3.40;;;20.50;89.20;;;;;;5054838;28;20483;-55
2022/09/21 13:01:25;;;;;;;14.50;3.08;;;20.60;89.00;;;;;;5061688;28;20514;-56
2022/09/21 13:04:26;;;;;;;18.95;3.53;;;20.60;88.90;;;;;;5032319;28;20037;-55
2022/09/21 13:07:16;;;;;;;15.97;3.17;;;20.60;88.80;;;;;;5085924;28;20120;-56
2022/09/21 13:09:45;;;;;;;16.23;3.50;;;20.60;88.70;;;;;;5080370;28;20290;-56
2022/09/21 13:12:16;;;;;;;12.90;2.83;;;20.60;88.70;;;;;;5068588;28;20024;-56
2022/09/21 13:14:50;;;;;;;15.00;3.00;;;20.60;88.60;;;;;;5069823;28;20199;-57
2022/09/21 13:17:30;;;;;;;14.32;2.97;;;20.60;88.60;;;;;;5072029;28;20041;-57
2022/09/21 13:20:01;;;;;;;9.13;2.88;;;20.60;88.70;;;;;;5089603;28;20040;-58
2022/09/21 13:22:35;;;;;;;17.47;3.10;;;20.60;88.90;;;;;;5075189;28;20446;-58
2022/09/21 13:25:23;;;;;;;14.50;3.17;;;20.60;88.70;;;;;;5062552;28;20327;-57
2022/09/21 13:28:12;;;;;;;10.60;3.13;;;20.60;88.70;;;;;;5048281;28;20037;-56
2022/09/21 13:31:00;;;;;;;15.18;3.40;;;20.60;88.70;;;;;;5069475;28;20082;-57
2022/09/21 13:33:29;;;;;;;12.30;3.40;;;20.60;88.50;;;;;;5053911;28;20060;-56